createdAt,value
2022-10-29T00:38:46.857Z,25.63
2022-10-29T00:41:19.674Z,20.00
2022-10-29T00:43:51.057Z,25.10
2022-10-29T00:46:34.720Z,25.07
2022-10-29T00:49:04.093Z,18.10
2022-10-29T00:51:33.911Z,28.50
2022-10-29T00:54:08.779Z,23.00
2022-10-29T00:56:43.997Z,22.13
2022-10-29T00:59:13.207Z,26.47
2022-10-29T01:01:43.897Z,24.73
2022-10-29T01:04:12.806Z,32.60
2022-10-29T01:06:47.382Z,20.97
2022-10-29T01:09:19.420Z,32.30
2022-10-29T01:12:19.749Z,27.97
2022-10-29T01:15:46.724Z,26.80
2022-10-29T01:18:23.724Z,31.77
2022-10-29T01:21:24.764Z,29.33
2022-10-29T01:24:26.855Z,18.00
2022-10-29T01:27:16.521Z,26.70
2022-10-29T01:30:07.127Z,37.17
2022-10-29T01:51:20.809Z,24.17
2022-10-29T01:53:49.827Z,22.97
2022-10-29T01:56:20.250Z,24.67
2022-10-29T01:58:54.826Z,27.03
2022-10-29T02:01:29.718Z,26.13
2022-10-29T02:04:16.449Z,23.67
2022-10-29T02:06:51.896Z,27.17
2022-10-29T02:09:36.360Z,22.37
2022-10-29T02:12:22.281Z,24.43
2022-10-29T02:14:59.896Z,29.33
2022-10-29T02:17:28.153Z,27.70
2022-10-29T02:19:56.437Z,23.07
2022-10-29T02:22:24.999Z,24.80
2022-10-29T02:24:53.375Z,36.80
2022-10-29T02:27:24.196Z,15.37
2022-10-29T02:29:54.554Z,26.60
2022-10-29T02:32:22.687Z,21.90
2022-10-29T02:37:35.755Z,24.20
2022-10-29T02:40:05.351Z,25.10
2022-10-29T02:42:33.456Z,20.17
2022-10-29T02:45:01.730Z,23.77
2022-10-29T02:47:29.914Z,22.03
2022-10-29T02:49:59.959Z,31.60
2022-10-29T02:52:29.463Z,23.70
2022-10-29T02:54:58.330Z,16.43
2022-10-29T02:57:26.588Z,21.10
2022-10-29T02:59:57.511Z,18.43
2022-10-29T03:02:27.027Z,26.30
2022-10-29T03:04:55.780Z,24.93
2022-10-29T03:07:25.670Z,25.60
2022-10-29T03:09:54.185Z,27.40
2022-10-29T03:12:23.250Z,24.30
2022-10-29T03:14:53.866Z,24.23
2022-10-29T04:27:31.380Z,24.70
2022-10-29T04:28:41.497Z,16.97
2022-10-29T04:30:27.002Z,19.40
2022-10-29T04:32:59.570Z,28.10
2022-10-29T04:35:29.403Z,21.80
2022-10-29T04:37:57.728Z,15.00
2022-10-29T04:40:26.507Z,18.93
2022-10-29T04:42:55.152Z,23.00
2022-10-29T04:45:24.017Z,18.63
2022-10-29T04:48:01.099Z,27.17
2022-10-29T04:50:30.423Z,24.47
2022-10-29T04:53:03.048Z,22.23
2022-10-29T04:55:32.262Z,11.13
2022-10-29T04:58:00.433Z,14.30
2022-10-29T05:00:31.395Z,9.87
2022-10-29T05:03:00.805Z,17.37
2022-10-29T05:05:29.191Z,14.93
2022-10-29T05:07:59.804Z,18.47
2022-10-29T05:10:30.314Z,15.40
2022-10-29T05:13:05.533Z,19.77
2022-10-29T05:15:35.143Z,17.80
2022-10-29T05:18:07.258Z,16.10
2022-10-29T05:20:35.580Z,17.27
2022-10-29T05:23:06.701Z,19.37
2022-10-29T05:25:37.572Z,19.73
2022-10-29T05:31:01.048Z,14.33
2022-10-29T05:33:29.789Z,9.20
2022-10-29T05:36:05.481Z,15.00
2022-10-29T05:38:35.359Z,14.70
2022-10-29T05:41:04.555Z,13.07
2022-10-29T05:43:32.658Z,18.50
2022-10-29T05:46:03.646Z,21.67
2022-10-29T05:48:32.317Z,20.50
2022-10-29T05:51:00.471Z,9.13
2022-10-29T05:53:28.675Z,14.60
2022-10-29T05:55:59.613Z,23.00
2022-10-29T05:58:28.004Z,14.20
2022-10-29T06:00:56.463Z,13.50
2022-10-29T06:03:26.608Z,16.00
2022-10-29T06:05:55.931Z,16.93
2022-10-29T06:08:24.322Z,12.07
2022-10-29T06:10:54.123Z,15.33
2022-10-29T06:13:23.364Z,11.40
2022-10-29T06:15:56.711Z,14.47
2022-10-29T06:18:25.092Z,13.30
2022-10-29T06:20:53.394Z,14.17
2022-10-29T06:23:21.359Z,26.57
2022-10-29T06:25:51.745Z,16.80
2022-10-29T06:28:20.264Z,15.53
2022-10-29T06:30:49.947Z,10.87
2022-10-29T06:33:19.484Z,12.37
2022-10-29T06:35:48.193Z,9.73
2022-10-29T06:38:16.732Z,11.63
2022-10-29T06:40:56.053Z,19.87
2022-10-29T06:43:24.108Z,15.73
2022-10-29T06:45:52.222Z,20.87
2022-10-29T06:48:22.331Z,17.37
2022-10-29T06:50:51.277Z,46.53
2022-10-29T06:53:19.493Z,32.00
2022-10-29T06:55:47.440Z,64.27
2022-10-29T06:58:55.313Z,53.53
2022-10-29T07:01:25.481Z,40.60
2022-10-29T07:03:56.293Z,20.93
2022-10-29T07:06:24.495Z,11.03
2022-10-29T07:08:52.421Z,15.37
2022-10-29T07:11:20.630Z,12.87
2022-10-29T07:13:48.593Z,21.80
2022-10-29T07:16:16.765Z,13.30
2022-10-29T07:18:45.658Z,14.20
2022-10-29T07:21:14.989Z,13.50
2022-10-29T07:23:43.335Z,7.30
2022-10-29T07:26:11.746Z,11.40
2022-10-29T07:28:40.107Z,10.87
2022-10-29T07:31:08.517Z,9.73
2022-10-29T07:33:36.837Z,8.90
2022-10-29T07:36:05.214Z,7.70
2022-10-29T07:38:33.903Z,8.87
2022-10-29T07:41:02.436Z,7.47
2022-10-29T07:43:30.529Z,10.87
2022-10-29T07:45:58.799Z,9.50
2022-10-29T07:48:27.342Z,11.00
2022-10-29T07:50:58.355Z,10.77
2022-10-29T07:53:27.004Z,7.73
2022-10-29T07:55:55.845Z,14.20
2022-10-29T07:58:25.053Z,10.13
2022-10-29T08:00:53.969Z,12.00
2022-10-29T08:03:22.211Z,9.63
2022-10-29T08:05:55.433Z,11.03
2022-10-29T08:08:25.344Z,10.13
2022-10-29T08:10:53.476Z,11.00
2022-10-29T08:13:21.612Z,10.73
2022-10-29T08:15:51.723Z,10.40
2022-10-29T08:18:20.661Z,8.57
2022-10-29T08:20:58.886Z,8.97
2022-10-29T08:23:26.593Z,7.17
2022-10-29T08:25:54.227Z,12.20
2022-10-29T08:28:25.555Z,11.00
2022-10-29T08:30:53.435Z,11.00
2022-10-29T08:33:21.070Z,8.30
2022-10-29T08:35:49.244Z,10.07
2022-10-29T08:38:16.996Z,11.67
2022-10-29T08:41:10.477Z,12.33
2022-10-29T08:43:56.603Z,8.50
2022-10-29T08:46:40.885Z,12.10
2022-10-29T08:49:17.522Z,6.87
2022-10-29T08:52:04.399Z,9.30
2022-10-29T08:54:36.325Z,6.93
2022-10-29T08:57:14.130Z,13.83
2022-10-29T09:00:02.464Z,13.50
2022-10-29T09:02:31.278Z,9.27
2022-10-29T09:04:59.616Z,8.93
2022-10-29T09:07:59.660Z,9.30
2022-10-29T09:10:38.728Z,16.70
2022-10-29T09:13:41.222Z,10.47
2022-10-29T09:16:14.618Z,13.20
2022-10-29T09:19:11.483Z,10.67
2022-10-29T09:21:57.150Z,13.53
2022-10-29T09:24:36.376Z,16.67
2022-10-29T09:27:09.674Z,12.83
2022-10-29T09:30:11.322Z,10.93
2022-10-29T09:32:52.740Z,14.43
2022-10-29T09:35:22.673Z,17.47
2022-10-29T09:38:00.002Z,14.87
2022-10-29T09:40:38.537Z,16.27
2022-10-29T09:43:18.228Z,14.67
2022-10-29T09:45:56.189Z,18.23
2022-10-29T09:48:50.768Z,15.63
2022-10-29T09:51:26.799Z,14.97
2022-10-29T09:53:55.676Z,23.10
2022-10-29T09:56:23.584Z,16.00
2022-10-29T09:59:01.686Z,19.00
2022-10-29T10:01:29.766Z,19.70
2022-10-29T10:04:03.383Z,19.37
2022-10-29T10:06:55.842Z,18.33
2022-10-29T10:09:24.029Z,22.40
2022-10-29T10:11:55.250Z,14.83
2022-10-29T10:14:25.880Z,15.17
2022-10-29T10:17:01.588Z,18.37
2022-10-29T10:19:32.183Z,26.50
2022-10-29T10:22:05.862Z,18.67
2022-10-29T10:24:38.412Z,14.93
2022-10-29T10:27:30.109Z,16.33
2022-10-29T10:30:05.260Z,15.43
2022-10-29T10:32:33.643Z,19.13
2022-10-29T10:35:02.939Z,16.70
2022-10-29T10:37:34.309Z,13.07
2022-10-29T10:40:06.096Z,13.90
2022-10-29T10:42:40.988Z,15.40
2022-10-29T10:45:29.789Z,13.50
2022-10-29T10:47:59.387Z,15.43
2022-10-29T10:50:34.628Z,15.80
2022-10-29T10:53:17.609Z,12.73
2022-10-29T10:56:00.659Z,14.67
2022-10-29T10:58:34.817Z,19.93
2022-10-29T11:01:25.621Z,17.23
2022-10-29T11:09:39.907Z,14.77
2022-10-29T11:12:25.691Z,19.80
2022-10-29T11:14:59.840Z,13.57
2022-10-29T11:35:46.796Z,11.60
2022-10-29T11:38:21.426Z,13.23
2022-10-29T11:40:59.095Z,12.97
2022-10-29T11:43:28.064Z,13.80
2022-10-29T11:49:24.199Z,12.40
2022-10-29T11:52:35.565Z,11.73
2022-10-29T11:55:19.151Z,12.07
2022-10-29T11:57:54.071Z,15.43
2022-10-29T12:00:24.855Z,11.20
2022-10-29T12:03:15.607Z,11.73
2022-10-29T12:06:14.206Z,11.13
2022-10-29T12:09:01.638Z,13.07
2022-10-29T12:11:51.252Z,11.00
2022-10-29T12:14:41.241Z,9.53
2022-10-29T12:17:33.328Z,10.60
2022-10-29T12:20:10.088Z,9.60
2022-10-29T12:22:53.533Z,9.60
2022-10-29T12:25:32.667Z,12.35
2022-10-29T12:28:22.237Z,10.83
2022-10-29T12:30:58.859Z,13.73
2022-10-29T12:33:37.968Z,10.10
2022-10-29T12:36:18.560Z,13.93
2022-10-29T12:38:53.688Z,10.87
2022-10-29T12:41:28.392Z,8.90
2022-10-29T12:44:10.926Z,10.70
2022-10-29T12:46:47.682Z,9.10
2022-10-29T12:49:33.730Z,10.00
2022-10-29T12:52:44.255Z,11.17
2022-10-29T12:55:15.821Z,11.50
2022-10-29T12:57:45.002Z,12.67
2022-10-29T13:00:25.063Z,10.20
2022-10-29T13:02:55.764Z,11.93
2022-10-29T13:05:44.582Z,10.27
2022-10-29T13:08:21.868Z,13.33
2022-10-29T13:10:52.112Z,16.40
2022-10-29T13:13:23.979Z,15.50
2022-10-29T13:16:00.277Z,17.13
2022-10-29T13:18:47.476Z,14.70
2022-10-29T13:21:53.150Z,11.53
2022-10-29T13:24:21.903Z,13.30
2022-10-29T13:27:26.537Z,15.33
2022-10-29T13:30:16.607Z,61.33
2022-10-29T13:32:45.116Z,16.40
2022-10-29T13:35:19.151Z,18.90
2022-10-29T13:37:47.043Z,28.97
2022-10-29T13:40:23.823Z,28.60
2022-10-29T13:43:19.601Z,12.33
2022-10-29T13:46:02.150Z,12.03
2022-10-29T13:48:35.525Z,15.00
2022-10-29T13:51:08.292Z,14.60
2022-10-29T13:54:25.046Z,17.07
2022-10-29T13:57:00.026Z,13.33
2022-10-29T13:59:52.796Z,17.20
2022-10-29T14:02:48.788Z,18.53
2022-10-29T14:05:32.697Z,15.83
2022-10-29T14:08:19.342Z,15.73
2022-10-29T14:10:49.988Z,22.90
2022-10-29T14:13:23.624Z,16.33
2022-10-29T14:16:02.711Z,16.93
2022-10-29T14:18:37.276Z,21.00
2022-10-29T14:21:18.556Z,19.50
2022-10-29T14:24:02.982Z,16.23
2022-10-29T14:26:34.506Z,18.43
2022-10-29T14:29:19.904Z,19.57
2022-10-29T14:31:51.964Z,18.97
2022-10-29T14:34:27.234Z,15.63
2022-10-29T14:37:20.372Z,18.47
2022-10-29T14:39:58.576Z,17.07
2022-10-29T14:42:33.873Z,23.20
2022-10-29T14:45:18.508Z,19.80
2022-10-29T14:47:54.605Z,21.90
2022-10-29T14:50:26.399Z,29.57
2022-10-29T14:52:58.653Z,27.07
2022-10-29T14:55:37.636Z,34.67
2022-10-29T14:58:05.892Z,34.90
2022-10-29T15:00:37.597Z,38.93
2022-10-29T15:03:08.149Z,40.87
2022-10-29T15:05:40.923Z,39.93
2022-10-29T15:08:11.745Z,28.13
2022-10-29T15:11:00.354Z,38.80
2022-10-29T15:13:27.878Z,27.43
2022-10-29T15:16:05.118Z,24.53
2022-10-29T17:20:37.597Z,35.20
2022-10-29T17:23:05.963Z,32.63
2022-10-29T17:25:34.991Z,31.93
2022-10-29T17:28:04.303Z,34.47
2022-10-29T17:30:32.471Z,32.17
2022-10-29T17:33:00.862Z,38.83
2022-10-29T17:35:29.052Z,37.53
2022-10-29T17:37:57.244Z,33.73
2022-10-29T17:40:26.728Z,35.83
2022-10-29T17:42:55.955Z,32.97
2022-10-29T17:45:24.138Z,35.33
2022-10-29T17:47:56.485Z,33.80
2022-10-29T17:50:25.821Z,33.80
2022-10-29T17:52:54.819Z,30.07
2022-10-29T17:55:25.890Z,29.87
2022-10-29T17:57:56.243Z,31.13
2022-10-29T18:00:24.415Z,31.47
2022-10-29T18:02:53.064Z,33.57
2022-10-29T18:05:21.619Z,28.13
2022-10-29T18:07:50.866Z,32.87
2022-10-29T18:10:19.912Z,31.07
2022-10-29T18:12:48.567Z,33.30
2022-10-29T18:15:19.948Z,33.00
2022-10-29T18:17:49.920Z,34.10
2022-10-29T18:20:19.151Z,95.07
2022-10-29T18:22:49.479Z,282.60
2022-10-29T18:25:20.144Z,500.07
2022-10-29T18:27:47.893Z,340.57
2022-10-29T18:30:16.623Z,65.10
2022-10-29T18:32:46.054Z,52.90
2022-10-29T18:35:13.978Z,33.67
2022-10-29T18:37:42.422Z,431.87
2022-10-29T18:40:10.879Z,224.83
2022-10-29T18:42:38.819Z,140.27
2022-10-29T18:45:08.383Z,118.03
2022-10-29T18:47:36.715Z,79.47
2022-10-29T18:50:04.665Z,53.00
2022-10-29T18:52:32.495Z,66.30
2022-10-29T18:55:00.548Z,90.80
2022-10-29T18:57:28.122Z,130.10
2022-10-29T18:59:56.153Z,88.40
2022-10-29T19:02:24.270Z,95.97
2022-10-29T19:04:53.458Z,55.43
2022-10-29T19:07:21.505Z,84.60
2022-10-29T19:09:52.825Z,103.67
2022-10-29T19:12:20.760Z,77.53
2022-10-29T19:14:48.628Z,59.73
2022-10-29T19:17:16.500Z,83.53
2022-10-29T19:19:44.343Z,57.63
2022-10-29T19:22:12.395Z,48.57
2022-10-29T19:24:40.093Z,117.13
2022-10-29T19:27:08.513Z,61.73
2022-10-29T19:29:36.752Z,48.10
2022-10-29T19:32:05.412Z,43.97
2022-10-29T19:34:34.462Z,67.13
2022-10-29T19:37:02.319Z,70.87
2022-10-29T19:39:33.966Z,47.03
2022-10-29T19:42:01.844Z,55.73
2022-10-29T19:44:30.899Z,49.40
2022-10-29T19:46:59.863Z,48.80
2022-10-29T19:49:28.054Z,47.43
2022-10-29T19:51:57.881Z,39.33
2022-10-29T19:54:26.239Z,48.23
2022-10-29T19:56:55.142Z,51.70
2022-10-29T19:59:38.444Z,43.47
2022-10-29T20:02:06.521Z,54.10
2022-10-29T20:04:34.314Z,47.50
2022-10-29T20:07:02.333Z,47.17
2022-10-29T20:09:30.845Z,46.60
2022-10-29T20:11:58.791Z,50.80
2022-10-29T20:14:29.164Z,42.20
2022-10-29T20:16:57.190Z,39.80
2022-10-29T20:19:25.955Z,46.30
2022-10-29T20:21:54.340Z,47.50
2022-10-29T20:24:26.667Z,41.80
2022-10-29T20:26:57.145Z,61.47
